Terminal Aerodrome Forecast
Issued by NWS Springfield, MO

Home | Current Version | Previous Version | Text Only | Print | Product List | Glossary On
Versions: 1 2 3 4 5 6 7 8 9 10 11 12
654
FTUS43 KSGF 242325
TAFSGF
TAF
KSGF 242325Z 2500/2524 19011KT P6SM FEW250
     FM250900 20009KT P6SM FEW250 WS020/24035KT
     FM251000 20008KT P6SM FEW250
     FM251500 23010KT P6SM FEW250
     FM252300 19008KT P6SM SCT250=

USA.gov is the U.S. government's official web portal to all federal, state and local government web resources and services.